createdAt,value
2023-04-18T00:01:11.289Z,98.98
2023-04-18T00:03:40.603Z,99.45
2023-04-18T00:06:07.250Z,99.46
2023-04-18T00:08:34.056Z,99.21
2023-04-18T00:11:00.388Z,99.12
2023-04-18T00:13:28.506Z,98.69
2023-04-18T00:15:55.170Z,98.54
2023-04-18T00:18:22.175Z,98.86
2023-04-18T00:20:48.594Z,98.95
2023-04-18T00:23:15.129Z,98.48
2023-04-18T00:25:41.515Z,98.44
2023-04-18T00:28:08.144Z,98.42
2023-04-18T00:30:34.629Z,98.60
2023-04-18T00:33:01.659Z,98.45
2023-04-18T00:35:28.395Z,98.43
2023-04-18T00:37:55.081Z,97.99
2023-04-18T00:40:21.787Z,98.23
2023-04-18T00:42:48.489Z,97.72
2023-04-18T00:45:14.998Z,98.03
2023-04-18T00:47:41.698Z,97.94
2023-04-18T00:50:09.962Z,98.11
2023-04-18T00:52:36.894Z,97.78
2023-04-18T00:55:06.629Z,97.54
2023-04-18T00:57:33.212Z,97.31
2023-04-18T01:00:01.372Z,97.50
2023-04-18T01:02:31.135Z,97.18
2023-04-18T01:04:58.627Z,96.68
2023-04-18T01:07:26.504Z,95.80
2023-04-18T01:09:53.905Z,95.12
2023-04-18T01:12:20.397Z,95.21
2023-04-18T01:14:46.757Z,95.30
2023-04-18T01:17:13.329Z,94.93
2023-04-18T01:19:40.443Z,94.84
2023-04-18T01:22:07.121Z,94.51
2023-04-18T01:24:33.786Z,94.54
2023-04-18T01:27:02.060Z,94.13
2023-04-18T01:29:29.001Z,93.83
2023-04-18T01:31:55.625Z,93.85
2023-04-18T01:34:22.020Z,93.92
2023-04-18T01:36:48.487Z,93.69
2023-04-18T01:39:15.091Z,93.68
2023-04-18T01:41:42.113Z,93.55
2023-04-18T01:44:08.569Z,93.28
2023-04-18T01:46:36.059Z,93.27
2023-04-18T01:49:02.908Z,93.03
2023-04-18T01:51:29.269Z,92.95
2023-04-18T01:53:55.705Z,93.10
2023-04-18T01:56:22.294Z,93.30
2023-04-18T01:58:48.784Z,92.46
2023-04-18T02:01:15.699Z,92.78
2023-04-18T02:03:42.284Z,92.63
2023-04-18T02:06:08.756Z,92.41
2023-04-18T02:08:35.899Z,92.34
2023-04-18T02:11:02.882Z,92.49
2023-04-18T02:13:29.555Z,92.50
2023-04-18T02:15:55.896Z,92.27
2023-04-18T02:18:24.690Z,92.71
2023-04-18T02:20:52.078Z,92.62
2023-04-18T02:23:19.071Z,92.09
2023-04-18T02:25:45.691Z,92.32
2023-04-18T02:28:12.046Z,91.35
2023-04-18T02:30:38.472Z,91.25
2023-04-18T02:33:04.970Z,90.76
2023-04-18T02:35:31.707Z,91.06
2023-04-18T02:37:58.114Z,90.72
2023-04-18T02:40:24.854Z,91.16
2023-04-18T02:42:51.221Z,90.95
2023-04-18T02:45:17.710Z,91.68
2023-04-18T02:47:54.489Z,91.03
2023-04-18T02:50:22.240Z,91.35
2023-04-18T02:52:48.929Z,91.45
2023-04-18T02:55:15.280Z,91.37
2023-04-18T02:57:41.754Z,91.07
2023-04-18T03:00:08.904Z,91.57
2023-04-18T03:02:35.776Z,91.35
2023-04-18T03:05:02.280Z,91.54
2023-04-18T03:07:28.928Z,91.00
2023-04-18T03:09:55.373Z,91.06
2023-04-18T03:12:21.805Z,90.63
2023-04-18T03:14:48.282Z,91.08
2023-04-18T03:17:14.770Z,91.38
2023-04-18T03:19:41.127Z,91.62
2023-04-18T03:22:07.808Z,91.72
2023-04-18T03:24:34.152Z,91.62
2023-04-18T03:27:00.791Z,92.05
2023-04-18T03:29:27.470Z,91.81
2023-04-18T03:31:53.932Z,92.01
2023-04-18T03:34:20.477Z,91.89
2023-04-18T03:36:48.190Z,91.93
2023-04-18T03:39:14.822Z,91.52
2023-04-18T03:41:41.502Z,91.86
2023-04-18T03:44:07.935Z,91.86
2023-04-18T03:46:35.172Z,91.99
2023-04-18T03:49:01.767Z,92.19
2023-04-18T03:51:33.792Z,91.99
2023-04-18T03:54:00.217Z,92.07
2023-04-18T03:56:26.930Z,92.16
2023-04-18T03:58:53.345Z,92.28
2023-04-18T04:01:19.824Z,92.31
2023-04-18T04:03:46.754Z,93.12
2023-04-18T04:06:13.596Z,93.44
2023-04-18T04:08:40.239Z,92.99
2023-04-18T04:11:06.746Z,93.41
2023-04-18T04:13:33.218Z,93.04
2023-04-18T04:15:59.662Z,93.33
2023-04-18T04:18:30.916Z,93.29
2023-04-18T04:20:59.177Z,93.43
2023-04-18T04:23:26.702Z,92.98
2023-04-18T04:25:53.706Z,93.34
2023-04-18T04:28:23.929Z,93.21
2023-04-18T04:30:53.791Z,93.40
2023-04-18T04:33:21.044Z,93.90
2023-04-18T04:35:48.020Z,93.54
2023-04-18T04:38:15.362Z,93.45
2023-04-18T04:40:42.468Z,93.01
2023-04-18T04:43:12.845Z,93.39
2023-04-18T04:45:42.178Z,93.11
2023-04-18T04:48:09.605Z,92.88
2023-04-18T04:50:38.171Z,93.03
2023-04-18T04:53:06.256Z,93.12
2023-04-18T04:55:33.123Z,93.51
2023-04-18T04:57:59.644Z,93.48
2023-04-18T05:00:26.168Z,93.39
2023-04-18T05:02:55.406Z,93.30
2023-04-18T05:05:22.348Z,93.32
2023-04-18T05:07:48.708Z,93.16
2023-04-18T05:10:15.148Z,93.02
2023-04-18T05:12:41.615Z,92.74
2023-04-18T05:15:08.215Z,92.32
2023-04-18T05:17:34.765Z,91.96
2023-04-18T05:20:01.241Z,92.27
2023-04-18T05:22:27.959Z,92.00
2023-04-18T05:24:54.316Z,92.45
2023-04-18T05:27:21.571Z,93.17
2023-04-18T05:29:49.312Z,92.65
2023-04-18T05:32:16.322Z,92.22
2023-04-18T05:34:43.279Z,92.62
2023-04-18T05:37:09.705Z,93.04
2023-04-18T05:39:36.608Z,92.96
2023-04-18T05:42:03.463Z,92.86
2023-04-18T05:44:29.931Z,92.29
2023-04-18T05:46:56.398Z,92.32
2023-04-18T05:49:23.089Z,92.44
2023-04-18T05:51:49.988Z,92.10
2023-04-18T05:54:16.949Z,92.59
2023-04-18T05:56:43.390Z,92.91
2023-04-18T05:59:09.726Z,93.05
2023-04-18T06:01:36.426Z,92.85
2023-04-18T06:04:02.957Z,92.12
2023-04-18T06:06:29.488Z,92.74
2023-04-18T06:08:55.873Z,92.71
2023-04-18T06:11:22.911Z,92.56
2023-04-18T06:13:49.440Z,92.13
2023-04-18T06:16:15.997Z,92.69
2023-04-18T06:18:42.467Z,92.84
2023-04-18T06:21:09.249Z,93.16
2023-04-18T06:23:35.611Z,92.91
2023-04-18T06:26:02.342Z,92.93
2023-04-18T06:28:28.731Z,93.02
2023-04-18T06:30:55.154Z,93.60
2023-04-18T06:33:21.516Z,94.60
2023-04-18T06:35:48.115Z,94.12
2023-04-18T06:38:14.780Z,94.17
2023-04-18T06:40:41.492Z,93.50
2023-04-18T06:43:08.158Z,93.32
2023-04-18T06:45:35.399Z,94.03
2023-04-18T06:48:05.867Z,93.93
2023-04-18T06:50:32.428Z,93.78
2023-04-18T06:52:58.976Z,93.71
2023-04-18T06:55:25.445Z,93.52
2023-04-18T06:57:51.928Z,93.66
2023-04-18T07:00:18.490Z,93.81
2023-04-18T07:02:45.143Z,93.66
2023-04-18T07:05:11.681Z,94.11
2023-04-18T07:07:38.168Z,93.66
2023-04-18T07:10:06.212Z,93.79
2023-04-18T07:12:32.612Z,93.74
2023-04-18T07:14:59.061Z,92.53
2023-04-18T07:17:25.838Z,92.93
2023-04-18T07:19:52.384Z,93.34
2023-04-18T07:22:18.730Z,93.01
2023-04-18T07:24:45.191Z,93.54
2023-04-18T07:27:11.599Z,93.28
2023-04-18T07:29:38.063Z,93.27
2023-04-18T07:32:06.116Z,93.31
2023-04-18T07:34:36.137Z,93.25
2023-04-18T07:37:02.618Z,92.72
2023-04-18T07:39:29.006Z,93.05
2023-04-18T07:41:55.418Z,93.08
2023-04-18T07:44:21.895Z,93.17
2023-04-18T07:46:48.442Z,92.94
2023-04-18T07:49:15.147Z,92.37
2023-04-18T07:51:41.690Z,92.34
2023-04-18T07:54:08.426Z,92.38
2023-04-18T07:56:34.822Z,92.09
2023-04-18T07:59:01.681Z,91.93
2023-04-18T08:01:28.102Z,91.12
2023-04-18T08:03:56.584Z,92.02
2023-04-18T08:06:23.254Z,92.40
2023-04-18T08:08:49.749Z,91.96
2023-04-18T08:11:16.557Z,91.44
2023-04-18T08:13:43.274Z,90.91
2023-04-18T08:16:09.737Z,91.35
2023-04-18T08:18:36.438Z,91.77
2023-04-18T08:21:02.812Z,91.73
2023-04-18T08:23:29.164Z,91.31
2023-04-18T08:25:55.678Z,91.08
2023-04-18T08:28:22.331Z,90.76
2023-04-18T08:30:49.288Z,90.33
2023-04-18T08:33:16.169Z,90.56
2023-04-18T08:35:42.975Z,90.34
2023-04-18T08:38:09.831Z,90.87
2023-04-18T08:40:37.257Z,89.63
2023-04-18T08:43:09.340Z,90.23
2023-04-18T08:45:36.888Z,88.90
2023-04-18T08:48:03.909Z,89.22
2023-04-18T08:50:30.533Z,89.47
2023-04-18T08:52:57.020Z,89.99
2023-04-18T08:55:23.473Z,89.18
2023-04-18T08:57:54.043Z,89.18
2023-04-18T09:00:20.619Z,89.52
2023-04-18T09:02:47.455Z,89.67
2023-04-18T09:05:16.733Z,89.03
2023-04-18T09:07:43.227Z,89.21
2023-04-18T09:10:10.172Z,89.06
2023-04-18T09:12:52.088Z,89.08
2023-04-18T09:15:20.437Z,89.41
2023-04-18T09:17:54.037Z,89.09
2023-04-18T09:20:36.055Z,89.09
2023-04-18T09:23:03.872Z,89.34
2023-04-18T09:25:41.591Z,89.03
2023-04-18T09:28:29.035Z,90.32
2023-04-18T09:30:57.299Z,90.32
2023-04-18T09:33:33.930Z,90.35
2023-04-18T09:36:19.209Z,90.37
2023-04-18T09:38:46.750Z,90.63
2023-04-18T09:41:15.883Z,90.69
2023-04-18T09:43:43.126Z,90.97
2023-04-18T09:46:09.684Z,91.28
2023-04-18T09:48:36.649Z,91.41
2023-04-18T09:51:22.018Z,91.49
2023-04-18T09:53:50.494Z,90.97
2023-04-18T09:56:25.920Z,91.72
2023-04-18T09:59:01.518Z,92.38
2023-04-18T10:01:29.807Z,91.78
2023-04-18T10:03:57.714Z,91.47
2023-04-18T10:06:27.368Z,92.60
2023-04-18T10:08:55.331Z,91.44
2023-04-18T10:11:23.616Z,92.53
2023-04-18T10:13:53.408Z,91.24
2023-04-18T10:16:20.729Z,91.27
2023-04-18T10:18:49.746Z,91.99
2023-04-18T10:21:16.648Z,90.50
2023-04-18T10:23:43.113Z,91.47
2023-04-18T10:26:10.963Z,92.06
2023-04-18T10:28:53.690Z,92.11
2023-04-18T10:31:28.247Z,92.37
2023-04-18T10:36:28.902Z,92.23
2023-04-18T10:39:00.544Z,91.92
2023-04-18T10:41:28.909Z,92.07
2023-04-18T10:44:08.672Z,92.41
2023-04-18T10:46:39.388Z,92.82
2023-04-18T10:49:18.144Z,92.32
2023-04-18T10:51:49.536Z,92.56
2023-04-18T10:54:28.560Z,92.62
2023-04-18T10:56:56.847Z,91.93
2023-04-18T10:59:25.129Z,92.56
2023-04-18T11:01:57.492Z,92.60
2023-04-18T11:04:25.406Z,91.78
2023-04-18T11:06:55.853Z,91.85
2023-04-18T11:09:22.591Z,92.09
2023-04-18T11:12:08.916Z,92.22
2023-04-18T11:14:45.464Z,90.92
2023-04-18T11:17:23.929Z,91.18
2023-04-18T11:20:01.382Z,91.43
2023-04-18T11:22:27.901Z,91.93
2023-04-18T11:24:59.145Z,93.34
2023-04-18T11:27:28.677Z,92.96
2023-04-18T11:29:56.393Z,93.00
2023-04-18T11:32:24.433Z,93.85
2023-04-18T11:34:53.215Z,93.51
2023-04-18T11:37:20.112Z,93.97
2023-04-18T11:39:46.726Z,94.00
2023-04-18T11:42:13.538Z,94.59
2023-04-18T11:44:40.224Z,93.81
2023-04-18T11:47:26.564Z,94.21
2023-04-18T11:50:07.149Z,94.16
2023-04-18T11:52:35.086Z,93.91
2023-04-18T11:55:21.387Z,93.79
2023-04-18T11:58:01.416Z,93.42
2023-04-18T12:00:34.008Z,93.03
2023-04-18T12:03:01.985Z,92.90
2023-04-18T12:05:30.962Z,93.09
2023-04-18T12:08:13.270Z,94.15
2023-04-18T12:10:57.515Z,94.11
2023-04-18T12:13:26.726Z,93.93
2023-04-18T12:15:54.153Z,93.89
2023-04-18T12:18:21.243Z,93.86
2023-04-18T12:20:54.434Z,93.52
2023-04-18T12:23:38.900Z,93.46
2023-04-18T12:26:23.659Z,93.74
2023-04-18T12:28:51.203Z,93.90
2023-04-18T12:31:18.045Z,93.70
2023-04-18T12:33:44.612Z,92.90
2023-04-18T12:36:11.115Z,92.76
2023-04-18T12:38:37.551Z,92.55
2023-04-18T12:41:04.267Z,92.58
2023-04-18T12:43:30.916Z,93.36
2023-04-18T12:45:57.695Z,92.76
2023-04-18T12:48:24.052Z,91.83
2023-04-18T12:50:50.480Z,91.79
2023-04-18T12:53:17.179Z,92.73
2023-04-18T12:55:43.599Z,92.44
2023-04-18T12:58:09.954Z,92.67
2023-04-18T13:00:36.370Z,92.62
2023-04-18T13:03:03.013Z,92.73
2023-04-18T13:05:33.145Z,92.92
2023-04-18T13:08:12.744Z,91.90
2023-04-18T13:10:42.393Z,92.51
2023-04-18T13:13:08.762Z,93.10
2023-04-18T13:15:35.219Z,93.14
2023-04-18T13:18:05.097Z,91.43
2023-04-18T13:20:32.251Z,91.98
2023-04-18T13:22:58.618Z,92.24
2023-04-18T13:25:26.380Z,92.48
2023-04-18T13:27:52.773Z,92.33
2023-04-18T13:30:19.503Z,92.50
2023-04-18T13:32:46.270Z,91.58
2023-04-18T13:35:12.691Z,92.13
2023-04-18T13:37:39.435Z,92.23
2023-04-18T13:40:06.742Z,91.90
2023-04-18T13:42:33.914Z,92.19
2023-04-18T13:45:00.461Z,92.17
2023-04-18T13:47:27.154Z,92.48
2023-04-18T13:49:53.604Z,92.57
2023-04-18T13:52:20.241Z,91.74
2023-04-18T13:54:47.027Z,92.26
2023-04-18T13:57:14.572Z,92.19
2023-04-18T13:59:41.183Z,92.88
2023-04-18T14:02:10.786Z,92.58
2023-04-18T14:04:37.510Z,92.20
2023-04-18T14:07:06.172Z,92.44
2023-04-18T14:09:32.651Z,92.40
2023-04-18T14:11:59.124Z,92.34
2023-04-18T14:14:25.792Z,92.85
2023-04-18T14:16:53.521Z,92.26
2023-04-18T14:19:19.932Z,92.56
2023-04-18T14:21:47.598Z,92.73
2023-04-18T14:24:14.278Z,92.31
2023-04-18T14:26:40.749Z,91.57
2023-04-18T14:29:07.275Z,91.62
2023-04-18T14:31:33.687Z,91.96
2023-04-18T14:34:00.104Z,92.54
2023-04-18T14:36:27.185Z,92.35
2023-04-18T14:38:54.616Z,91.49
2023-04-18T14:41:21.079Z,90.94
2023-04-18T14:43:47.422Z,91.43
2023-04-18T14:46:18.331Z,91.23
2023-04-18T14:48:46.347Z,91.42
2023-04-18T14:51:12.984Z,91.18
2023-04-18T14:53:39.378Z,91.48
2023-04-18T14:56:06.329Z,91.49
2023-04-18T14:58:32.999Z,91.33
2023-04-18T15:00:59.416Z,91.78
2023-04-18T15:03:26.232Z,91.34
2023-04-18T15:05:53.201Z,91.07
2023-04-18T15:08:19.698Z,91.44
2023-04-18T15:10:47.473Z,92.06
2023-04-18T15:13:13.907Z,90.98
2023-04-18T15:15:40.379Z,91.39
2023-04-18T15:18:08.258Z,91.96
2023-04-18T15:20:36.044Z,91.39
2023-04-18T15:23:02.838Z,92.08
2023-04-18T15:25:30.364Z,92.00
2023-04-18T15:27:58.097Z,92.16
2023-04-18T15:30:25.203Z,92.88
2023-04-18T15:32:52.172Z,92.69
2023-04-18T15:35:18.792Z,93.00
2023-04-18T15:37:45.169Z,93.27
2023-04-18T15:40:16.030Z,93.08
2023-04-18T15:42:43.561Z,93.46
2023-04-18T15:45:10.832Z,93.67
2023-04-18T15:47:37.397Z,93.57
2023-04-18T15:50:04.378Z,93.49
2023-04-18T15:52:30.908Z,93.03
2023-04-18T15:54:57.806Z,93.62
2023-04-18T15:57:24.234Z,92.87
2023-04-18T15:59:50.647Z,93.23
2023-04-18T16:02:17.060Z,92.87
2023-04-18T16:04:43.548Z,93.58
2023-04-18T16:07:12.038Z,93.39
2023-04-18T16:09:38.541Z,93.31
2023-04-18T16:12:05.802Z,92.96
2023-04-18T16:14:33.380Z,93.10
2023-04-18T16:16:59.886Z,93.56
2023-04-18T16:19:26.547Z,93.04
2023-04-18T16:21:52.901Z,93.40
2023-04-18T16:24:19.298Z,93.02
2023-04-18T16:26:45.713Z,92.89
2023-04-18T16:29:12.377Z,92.72
2023-04-18T16:31:38.803Z,91.91
2023-04-18T16:34:05.313Z,92.73
2023-04-18T16:36:34.146Z,93.00
2023-04-18T16:39:00.635Z,93.35
2023-04-18T16:41:27.256Z,93.72
2023-04-18T16:43:53.949Z,93.95
2023-04-18T16:46:20.499Z,93.15
2023-04-18T16:48:47.020Z,93.44
2023-04-18T16:51:13.406Z,93.91
2023-04-18T16:53:39.775Z,93.29
2023-04-18T16:56:07.870Z,93.07
2023-04-18T16:58:34.336Z,93.47
2023-04-18T17:01:04.052Z,94.02
2023-04-18T17:03:30.648Z,93.88
2023-04-18T17:05:57.218Z,93.91
2023-04-18T17:08:25.753Z,93.91
2023-04-18T17:10:52.758Z,94.12
2023-04-18T17:13:19.198Z,94.07
2023-04-18T17:15:45.885Z,93.97
2023-04-18T17:18:12.430Z,94.50
2023-04-18T17:20:38.969Z,94.63
2023-04-18T17:23:05.350Z,94.49
2023-04-18T17:25:31.828Z,93.60
2023-04-18T17:27:58.361Z,94.08
2023-04-18T17:30:24.796Z,94.60
2023-04-18T17:32:51.255Z,94.88
2023-04-18T17:35:17.883Z,94.38
2023-04-18T17:37:44.324Z,94.63
2023-04-18T17:40:11.670Z,94.22
2023-04-18T17:42:38.234Z,94.22
2023-04-18T17:45:07.483Z,94.53
2023-04-18T17:47:34.541Z,94.39
2023-04-18T17:50:00.967Z,94.89
2023-04-18T17:52:28.490Z,94.68
2023-04-18T17:54:55.620Z,94.17
2023-04-18T17:57:22.927Z,94.81
2023-04-18T17:59:49.757Z,94.75
2023-04-18T18:02:16.511Z,94.82
2023-04-18T18:04:42.963Z,94.73
2023-04-18T18:07:09.370Z,94.40
2023-04-18T18:09:35.801Z,94.63
2023-04-18T18:12:02.581Z,94.29
2023-04-18T18:14:28.933Z,94.91
2023-04-18T18:16:55.943Z,95.52
2023-04-18T18:19:22.433Z,95.49
2023-04-18T18:21:48.813Z,95.59
2023-04-18T18:24:15.227Z,95.65
2023-04-18T18:26:41.733Z,95.87
2023-04-18T18:29:11.162Z,95.77
2023-04-18T18:31:38.558Z,95.74
2023-04-18T18:34:05.689Z,95.96
2023-04-18T18:36:32.173Z,96.09
2023-04-18T18:38:58.603Z,95.95
2023-04-18T18:41:24.990Z,96.04
2023-04-18T18:43:51.585Z,95.59
2023-04-18T18:46:18.227Z,96.19
2023-04-18T18:48:44.648Z,96.00
2023-04-18T18:51:11.547Z,96.22
2023-04-18T18:53:40.149Z,96.07
2023-04-18T18:56:08.544Z,96.28
2023-04-18T18:58:35.561Z,96.13
2023-04-18T19:01:03.243Z,95.77
2023-04-18T19:03:29.891Z,95.96
2023-04-18T19:05:56.651Z,95.89
2023-04-18T19:08:23.108Z,95.84
2023-04-18T19:10:50.519Z,95.60
2023-04-18T19:13:18.891Z,96.04
2023-04-18T19:15:45.383Z,95.83
2023-04-18T19:18:12.428Z,95.87
2023-04-18T19:20:40.353Z,95.92
2023-04-18T19:23:06.793Z,95.83
2023-04-18T19:25:33.211Z,95.67
2023-04-18T19:27:59.560Z,95.81
2023-04-18T19:30:26.278Z,95.49
2023-04-18T19:32:52.757Z,95.83
2023-04-18T19:35:19.226Z,95.47
2023-04-18T19:37:45.734Z,95.44
2023-04-18T19:40:12.373Z,95.25
2023-04-18T19:42:38.821Z,95.39
2023-04-18T19:45:05.923Z,94.88
2023-04-18T19:47:33.849Z,95.03
2023-04-18T19:50:01.098Z,94.96
2023-04-18T19:52:27.548Z,94.99
2023-04-18T19:54:55.051Z,94.43
2023-04-18T19:57:21.929Z,95.26
2023-04-18T19:59:48.287Z,95.34
2023-04-18T20:02:14.972Z,94.79
2023-04-18T20:04:42.138Z,94.86
2023-04-18T20:07:09.010Z,94.32
2023-04-18T20:09:35.378Z,95.03
2023-04-18T20:12:02.578Z,94.87
2023-04-18T20:14:29.724Z,94.87
2023-04-18T20:16:56.647Z,94.62
2023-04-18T20:19:26.748Z,94.00
2023-04-18T20:21:53.197Z,94.30
2023-04-18T20:24:21.094Z,94.40
2023-04-18T20:26:47.806Z,93.74
2023-04-18T20:29:14.425Z,94.07
2023-04-18T20:31:42.371Z,94.30
2023-04-18T20:34:09.742Z,93.78
2023-04-18T20:36:41.379Z,93.56
2023-04-18T20:39:08.826Z,93.67
2023-04-18T20:41:36.814Z,93.95
2023-04-18T20:44:05.164Z,94.57
2023-04-18T20:46:32.280Z,94.38
2023-04-18T20:48:58.851Z,94.79
2023-04-18T20:51:26.741Z,94.91
2023-04-18T20:53:53.120Z,94.92
2023-04-18T20:56:20.119Z,94.34
2023-04-18T20:58:46.522Z,94.82
2023-04-18T21:01:12.945Z,94.01
2023-04-18T21:03:39.480Z,94.49
2023-04-18T21:06:06.073Z,94.99
2023-04-18T21:08:34.656Z,94.87
2023-04-18T21:11:01.316Z,94.76
2023-04-18T21:13:28.007Z,94.27
2023-04-18T21:15:56.962Z,95.16
2023-04-18T21:18:24.054Z,94.98
2023-04-18T21:20:52.798Z,95.16
2023-04-18T21:23:19.491Z,94.75
2023-04-18T21:25:45.960Z,94.90
2023-04-18T21:28:12.503Z,94.88
2023-04-18T21:30:38.876Z,94.81
2023-04-18T21:33:05.393Z,95.16
2023-04-18T21:35:31.832Z,94.96
2023-04-18T21:37:58.270Z,95.34
2023-04-18T21:40:26.670Z,95.22
2023-04-18T21:42:53.029Z,95.66
2023-04-18T21:45:19.431Z,95.71
2023-04-18T21:47:46.219Z,95.62
2023-04-18T21:50:12.954Z,95.39
2023-04-18T21:52:39.504Z,95.05
2023-04-18T21:55:06.146Z,95.39
2023-04-18T21:57:32.533Z,95.40
2023-04-18T21:59:58.911Z,95.44
2023-04-18T22:02:27.028Z,95.83
2023-04-18T22:04:53.789Z,95.97
2023-04-18T22:07:20.232Z,95.82
2023-04-18T22:09:46.645Z,96.35
2023-04-18T22:12:13.988Z,96.23
2023-04-18T22:14:41.889Z,96.42
2023-04-18T22:17:09.230Z,96.38
2023-04-18T22:19:35.687Z,95.83
2023-04-18T22:22:02.112Z,95.82
2023-04-18T22:24:28.536Z,95.93
2023-04-18T22:26:54.992Z,95.08
2023-04-18T22:29:21.664Z,95.37
2023-04-18T22:31:48.140Z,95.05
2023-04-18T22:34:14.801Z,94.83
2023-04-18T22:36:42.671Z,94.93
2023-04-18T22:39:09.109Z,95.32
2023-04-18T22:41:35.500Z,94.88
2023-04-18T22:44:01.842Z,95.44
2023-04-18T22:46:28.646Z,95.59
2023-04-18T22:48:55.163Z,95.16
2023-04-18T22:51:23.328Z,95.46
2023-04-18T22:53:49.954Z,95.70
2023-04-18T22:56:16.315Z,95.58
2023-04-18T22:58:42.704Z,95.75
2023-04-18T23:01:09.109Z,96.14
2023-04-18T23:03:35.776Z,95.84
2023-04-18T23:06:02.242Z,95.43
2023-04-18T23:08:28.642Z,95.50
2023-04-18T23:10:55.035Z,95.73
2023-04-18T23:13:21.526Z,95.05
2023-04-18T23:15:47.948Z,95.41
2023-04-18T23:18:14.551Z,95.18
2023-04-18T23:20:40.925Z,94.60
2023-04-18T23:23:07.308Z,95.31
2023-04-18T23:25:33.775Z,94.99
2023-04-18T23:28:00.249Z,95.12
2023-04-18T23:30:26.655Z,94.65
2023-04-18T23:32:53.101Z,94.41
2023-04-18T23:35:19.569Z,94.10
2023-04-18T23:37:46.049Z,94.06
2023-04-18T23:40:12.465Z,93.73
2023-04-18T23:42:38.864Z,94.06
2023-04-18T23:45:05.944Z,92.74
2023-04-18T23:47:32.525Z,93.08
2023-04-18T23:49:58.917Z,93.00
2023-04-18T23:52:25.397Z,94.34
2023-04-18T23:54:51.889Z,93.63
2023-04-18T23:57:18.262Z,93.68
2023-04-18T23:59:44.943Z,92.56
